sensor_id;sensor_type;location;lat;lon;timestamp;pressure;altitude;pressure_sealevel;temperature;humidity
71476;BME280;59286;59.274;17.974;2023-03-23T00:00:51;99053.94;;;5.50;91.97
71476;BME280;59286;59.274;17.974;2023-03-23T00:03:16;99055.34;;;5.48;92.49
71476;BME280;59286;59.274;17.974;2023-03-23T00:05:42;99065.19;;;5.59;92.97
71476;BME280;59286;59.274;17.974;2023-03-23T00:08:18;99051.25;;;5.55;92.79
71476;BME280;59286;59.274;17.974;2023-03-23T00:10:50;99049.13;;;5.57;92.97
71476;BME280;59286;59.274;17.974;2023-03-23T00:13:23;99039.06;;;5.64;92.13
71476;BME280;59286;59.274;17.974;2023-03-23T00:15:48;99045.78;;;5.65;92.12
71476;BME280;59286;59.274;17.974;2023-03-23T00:18:15;99050.66;;;5.67;92.17
71476;BME280;59286;59.274;17.974;2023-03-23T00:20:51;99055.59;;;5.68;91.82
71476;BME280;59286;59.274;17.974;2023-03-23T00:23:18;99056.16;;;5.65;91.12
71476;BME280;59286;59.274;17.974;2023-03-23T00:25:49;99052.22;;;5.68;90.89
71476;BME280;59286;59.274;17.974;2023-03-23T00:28:16;99063.84;;;5.70;90.90
71476;BME280;59286;59.274;17.974;2023-03-23T00:30:42;99055.44;;;5.73;90.28
71476;BME280;59286;59.274;17.974;2023-03-23T00:33:10;99055.44;;;5.73;89.41
71476;BME280;59286;59.274;17.974;2023-03-23T00:35:39;99061.59;;;5.77;89.33
71476;BME280;59286;59.274;17.974;2023-03-23T00:38:05;99062.47;;;5.73;89.60
71476;BME280;59286;59.274;17.974;2023-03-23T00:40:30;99054.66;;;5.64;89.76
71476;BME280;59286;59.274;17.974;2023-03-23T00:42:56;99058.28;;;5.63;89.86
71476;BME280;59286;59.274;17.974;2023-03-23T00:45:21;99048.97;;;5.62;89.90
71476;BME280;59286;59.274;17.974;2023-03-23T00:47:49;99055.69;;;5.63;89.57
71476;BME280;59286;59.274;17.974;2023-03-23T00:50:16;99065.03;;;5.64;89.54
71476;BME280;59286;59.274;17.974;2023-03-23T00:52:43;99061.19;;;5.62;89.69
71476;BME280;59286;59.274;17.974;2023-03-23T00:55:09;99050.03;;;5.61;90.12
71476;BME280;59286;59.274;17.974;2023-03-23T00:57:34;99051.81;;;5.52;89.80
71476;BME280;59286;59.274;17.974;2023-03-23T00:59:59;99047.22;;;5.49;89.86
71476;BME280;59286;59.274;17.974;2023-03-23T01:02:25;99061.28;;;5.48;90.01
71476;BME280;59286;59.274;17.974;2023-03-23T01:04:51;99063.44;;;5.46;90.38
71476;BME280;59286;59.274;17.974;2023-03-23T01:07:18;99057.88;;;5.39;89.66
71476;BME280;59286;59.274;17.974;2023-03-23T01:09:46;99071.16;;;5.38;90.01
71476;BME280;59286;59.274;17.974;2023-03-23T01:12:11;99069.16;;;5.35;89.57
71476;BME280;59286;59.274;17.974;2023-03-23T01:14:37;99068.69;;;5.33;89.53
71476;BME280;59286;59.274;17.974;2023-03-23T01:17:02;99075.53;;;5.29;89.62
71476;BME280;59286;59.274;17.974;2023-03-23T01:19:28;99073.25;;;5.27;89.68
71476;BME280;59286;59.274;17.974;2023-03-23T01:21:53;99071.81;;;5.21;89.61
71476;BME280;59286;59.274;17.974;2023-03-23T01:24:19;99067.06;;;5.15;89.87
71476;BME280;59286;59.274;17.974;2023-03-23T01:26:44;99068.97;;;5.09;89.84
71476;BME280;59286;59.274;17.974;2023-03-23T01:29:10;99066.03;;;5.02;90.13
71476;BME280;59286;59.274;17.974;2023-03-23T01:31:36;99060.66;;;4.99;90.05
71476;BME280;59286;59.274;17.974;2023-03-23T01:34:02;99068.63;;;5.02;89.90
71476;BME280;59286;59.274;17.974;2023-03-23T01:36:29;99066.44;;;4.96;90.26
71476;BME280;59286;59.274;17.974;2023-03-23T01:38:59;99072.50;;;4.91;90.23
71476;BME280;59286;59.274;17.974;2023-03-23T01:41:26;99077.72;;;4.91;90.54
71476;BME280;59286;59.274;17.974;2023-03-23T01:43:59;99083.50;;;4.88;90.47
71476;BME280;59286;59.274;17.974;2023-03-23T01:46:27;99083.59;;;4.83;90.45
71476;BME280;59286;59.274;17.974;2023-03-23T01:48:53;99080.25;;;4.82;90.19
71476;BME280;59286;59.274;17.974;2023-03-23T01:51:21;99071.81;;;4.77;90.87
71476;BME280;59286;59.274;17.974;2023-03-23T01:53:54;99066.44;;;4.73;90.87
71476;BME280;59286;59.274;17.974;2023-03-23T01:56:23;99057.88;;;4.73;90.50
71476;BME280;59286;59.274;17.974;2023-03-23T01:58:53;99070.06;;;4.72;90.67
71476;BME280;59286;59.274;17.974;2023-03-23T02:01:19;99070.38;;;4.71;91.00
71476;BME280;59286;59.274;17.974;2023-03-23T02:03:47;99071.53;;;4.65;90.88
71476;BME280;59286;59.274;17.974;2023-03-23T02:06:13;99068.56;;;4.58;90.92
71476;BME280;59286;59.274;17.974;2023-03-23T02:08:40;99081.53;;;4.58;91.48
71476;BME280;59286;59.274;17.974;2023-03-23T02:11:18;99074.94;;;4.52;91.22
71476;BME280;59286;59.274;17.974;2023-03-23T02:13:45;99082.53;;;4.48;91.23
71476;BME280;59286;59.274;17.974;2023-03-23T02:16:28;99076.28;;;4.49;91.36
71476;BME280;59286;59.274;17.974;2023-03-23T02:22:56;99067.94;;;4.39;91.54
71476;BME280;59286;59.274;17.974;2023-03-23T02:25:11;99063.03;;;4.37;91.86
71476;BME280;59286;59.274;17.974;2023-03-23T02:33:56;99063.81;;;4.24;91.83
71476;BME280;59286;59.274;17.974;2023-03-23T02:36:44;99062.56;;;4.22;91.94
71476;BME280;59286;59.274;17.974;2023-03-23T02:39:34;99069.78;;;4.25;92.02
71476;BME280;59286;59.274;17.974;2023-03-23T02:42:05;99069.78;;;4.25;91.89
71476;BME280;59286;59.274;17.974;2023-03-23T02:44:33;99073.53;;;4.19;92.05
71476;BME280;59286;59.274;17.974;2023-03-23T02:47:00;99078.53;;;4.15;92.25
71476;BME280;59286;59.274;17.974;2023-03-23T02:49:29;99075.75;;;4.12;92.31
71476;BME280;59286;59.274;17.974;2023-03-23T02:51:58;99063.25;;;4.14;92.18
71476;BME280;59286;59.274;17.974;2023-03-23T02:54:26;99068.94;;;4.16;91.69
71476;BME280;59286;59.274;17.974;2023-03-23T02:56:53;99061.72;;;4.13;92.25
71476;BME280;59286;59.274;17.974;2023-03-23T02:59:20;99057.59;;;4.12;92.30
71476;BME280;59286;59.274;17.974;2023-03-23T03:01:50;99059.22;;;4.08;92.07
71476;BME280;59286;59.274;17.974;2023-03-23T03:04:19;99066.72;;;4.09;92.19
71476;BME280;59286;59.274;17.974;2023-03-23T03:11:52;99060.56;;;4.05;91.89
71476;BME280;59286;59.274;17.974;2023-03-23T03:14:39;99063.63;;;4.07;92.16
71476;BME280;59286;59.274;17.974;2023-03-23T03:17:23;99057.59;;;3.98;92.30
71476;BME280;59286;59.274;17.974;2023-03-23T03:19:54;99061.72;;;3.99;92.18
71476;BME280;59286;59.274;17.974;2023-03-23T03:22:23;99061.31;;;3.92;92.61
71476;BME280;59286;59.274;17.974;2023-03-23T03:24:50;99053.66;;;3.87;92.69
71476;BME280;59286;59.274;17.974;2023-03-23T03:27:18;99062.94;;;3.88;93.27
71476;BME280;59286;59.274;17.974;2023-03-23T03:29:48;99072.47;;;3.92;93.19
71476;BME280;59286;59.274;17.974;2023-03-23T03:32:20;99066.81;;;3.90;93.27
71476;BME280;59286;59.274;17.974;2023-03-23T03:34:48;99075.34;;;3.91;92.84
71476;BME280;59286;59.274;17.974;2023-03-23T03:37:16;99069.50;;;3.85;93.26
71476;BME280;59286;59.274;17.974;2023-03-23T03:39:42;99077.47;;;3.89;93.61
71476;BME280;59286;59.274;17.974;2023-03-23T03:42:07;99078.59;;;3.83;93.52
71476;BME280;59286;59.274;17.974;2023-03-23T03:44:33;99080.34;;;3.87;93.82
71476;BME280;59286;59.274;17.974;2023-03-23T03:46:59;99072.66;;;3.82;93.80
71476;BME280;59286;59.274;17.974;2023-03-23T03:49:24;99086.09;;;3.84;93.72
71476;BME280;59286;59.274;17.974;2023-03-23T03:51:50;99072.75;;;3.77;93.95
71476;BME280;59286;59.274;17.974;2023-03-23T03:54:16;99067.28;;;3.79;94.15
71476;BME280;59286;59.274;17.974;2023-03-23T03:56:41;99064.97;;;3.77;94.16
71476;BME280;59286;59.274;17.974;2023-03-23T03:59:08;99077.34;;;3.80;94.01
71476;BME280;59286;59.274;17.974;2023-03-23T04:01:35;99062.38;;;3.77;94.30
71476;BME280;59286;59.274;17.974;2023-03-23T04:04:02;99074.75;;;3.80;94.27
71476;BME280;59286;59.274;17.974;2023-03-23T04:06:28;99074.28;;;3.78;94.25
71476;BME280;59286;59.274;17.974;2023-03-23T04:08:57;99071.72;;;3.78;94.40
71476;BME280;59286;59.274;17.974;2023-03-23T04:11:23;99067.66;;;3.72;94.66
71476;BME280;59286;59.274;17.974;2023-03-23T04:13:49;99071.78;;;3.73;94.46
71476;BME280;59286;59.274;17.974;2023-03-23T04:16:14;99063.81;;;3.70;94.65
71476;BME280;59286;59.274;17.974;2023-03-23T04:18:41;99058.16;;;3.68;94.99
71476;BME280;59286;59.274;17.974;2023-03-23T04:21:08;99067.47;;;3.69;94.82
71476;BME280;59286;59.274;17.974;2023-03-23T04:23:34;99070.31;;;3.67;94.80
71476;BME280;59286;59.274;17.974;2023-03-23T04:26:00;99055.94;;;3.61;95.19
71476;BME280;59286;59.274;17.974;2023-03-23T04:28:26;99061.69;;;3.58;95.31
71476;BME280;59286;59.274;17.974;2023-03-23T04:30:53;99056.59;;;3.53;95.43
71476;BME280;59286;59.274;17.974;2023-03-23T04:33:23;99054.19;;;3.57;95.67
71476;BME280;59286;59.274;17.974;2023-03-23T04:35:51;99063.22;;;3.59;95.32
71476;BME280;59286;59.274;17.974;2023-03-23T04:38:17;99068.22;;;3.56;95.72
71476;BME280;59286;59.274;17.974;2023-03-23T04:40:48;99076.66;;;3.61;95.69
71476;BME280;59286;59.274;17.974;2023-03-23T04:43:17;99065.34;;;3.57;95.93
71476;BME280;59286;59.274;17.974;2023-03-23T04:45:42;99062.25;;;3.55;95.74
71476;BME280;59286;59.274;17.974;2023-03-23T04:48:11;99056.31;;;3.55;95.52
71476;BME280;59286;59.274;17.974;2023-03-23T04:50:36;99067.44;;;3.55;95.40
71476;BME280;59286;59.274;17.974;2023-03-23T04:53:02;99062.53;;;3.54;95.85
71476;BME280;59286;59.274;17.974;2023-03-23T04:55:32;99070.88;;;3.51;95.76
71476;BME280;59286;59.274;17.974;2023-03-23T04:58:05;99075.13;;;3.60;95.26
71476;BME280;59286;59.274;17.974;2023-03-23T05:00:33;99080.28;;;3.60;95.27
71476;BME280;59286;59.274;17.974;2023-03-23T05:02:59;99066.75;;;3.50;95.51
71476;BME280;59286;59.274;17.974;2023-03-23T05:05:26;99083.75;;;3.56;95.45
71476;BME280;59286;59.274;17.974;2023-03-23T05:07:54;99071.28;;;3.58;95.44
71476;BME280;59286;59.274;17.974;2023-03-23T05:10:20;99075.69;;;3.57;95.22
71476;BME280;59286;59.274;17.974;2023-03-23T05:12:45;99063.22;;;3.59;95.02
71476;BME280;59286;59.274;17.974;2023-03-23T05:15:13;99065.81;;;3.59;94.83
71476;BME280;59286;59.274;17.974;2023-03-23T05:17:38;99080.69;;;3.67;95.02
71476;BME280;59286;59.274;17.974;2023-03-23T05:20:06;99081.75;;;3.66;94.83
71476;BME280;59286;59.274;17.974;2023-03-23T05:22:35;99080.69;;;3.67;94.57
71476;BME280;59286;59.274;17.974;2023-03-23T05:25:02;99085.50;;;3.74;94.27
71476;BME280;59286;59.274;17.974;2023-03-23T05:27:28;99086.28;;;3.74;94.04
71476;BME280;59286;59.274;17.974;2023-03-23T05:29:56;99091.06;;;3.81;94.15
71476;BME280;59286;59.274;17.974;2023-03-23T05:32:23;99078.91;;;3.81;93.38
71476;BME280;59286;59.274;17.974;2023-03-23T05:34:54;99088.97;;;3.83;93.52
71476;BME280;59286;59.274;17.974;2023-03-23T05:37:19;99089.66;;;3.88;93.30
71476;BME280;59286;59.274;17.974;2023-03-23T05:39:45;99099.34;;;3.97;93.23
71476;BME280;59286;59.274;17.974;2023-03-23T05:42:10;99080.44;;;3.96;93.12
71476;BME280;59286;59.274;17.974;2023-03-23T05:44:35;99089.38;;;4.04;92.51
71476;BME280;59286;59.274;17.974;2023-03-23T05:47:01;99100.41;;;4.09;92.29
71476;BME280;59286;59.274;17.974;2023-03-23T05:49:26;99104.75;;;4.14;91.84
71476;BME280;59286;59.274;17.974;2023-03-23T05:51:52;99100.97;;;4.20;91.17
71476;BME280;59286;59.274;17.974;2023-03-23T05:54:17;99108.88;;;4.28;90.99
71476;BME280;59286;59.274;17.974;2023-03-23T05:56:43;99101.56;;;4.30;90.37
71476;BME280;59286;59.274;17.974;2023-03-23T05:59:09;99105.78;;;4.40;90.09
71476;BME280;59286;59.274;17.974;2023-03-23T06:01:36;99106.94;;;4.47;89.52
71476;BME280;59286;59.274;17.974;2023-03-23T06:04:02;99112.97;;;4.56;89.60
71476;BME280;59286;59.274;17.974;2023-03-23T06:06:29;99115.66;;;4.65;89.40
71476;BME280;59286;59.274;17.974;2023-03-23T06:08:56;99119.56;;;4.76;87.93
71476;BME280;59286;59.274;17.974;2023-03-23T06:11:22;99110.72;;;4.77;88.02
71476;BME280;59286;59.274;17.974;2023-03-23T06:13:48;99112.81;;;4.88;87.95
71476;BME280;59286;59.274;17.974;2023-03-23T06:16:13;99112.41;;;4.95;87.22
71476;BME280;59286;59.274;17.974;2023-03-23T06:18:39;99114.63;;;5.02;87.31
71476;BME280;59286;59.274;17.974;2023-03-23T06:21:07;99120.16;;;5.09;86.20
71476;BME280;59286;59.274;17.974;2023-03-23T06:23:34;99120.50;;;5.16;86.17
71476;BME280;59286;59.274;17.974;2023-03-23T06:26:02;99130.03;;;5.20;85.57
71476;BME280;59286;59.274;17.974;2023-03-23T06:28:28;99128.75;;;5.31;85.85
71476;BME280;59286;59.274;17.974;2023-03-23T06:30:54;99118.34;;;5.31;85.33
71476;BME280;59286;59.274;17.974;2023-03-23T06:33:20;99129.44;;;5.45;85.04
71476;BME280;59286;59.274;17.974;2023-03-23T06:35:45;99127.19;;;5.52;84.43
71476;BME280;59286;59.274;17.974;2023-03-23T06:38:11;99136.75;;;5.65;84.25
71476;BME280;59286;59.274;17.974;2023-03-23T06:40:37;99144.00;;;5.77;83.86
71476;BME280;59286;59.274;17.974;2023-03-23T06:43:03;99147.84;;;5.79;83.38
71476;BME280;59286;59.274;17.974;2023-03-23T06:45:29;99156.63;;;5.83;83.57
71476;BME280;59286;59.274;17.974;2023-03-23T06:47:54;99141.03;;;5.83;82.99
71476;BME280;59286;59.274;17.974;2023-03-23T06:50:20;99133.00;;;6.02;82.61
71476;BME280;59286;59.274;17.974;2023-03-23T06:52:50;99132.56;;;6.09;81.40
71476;BME280;59286;59.274;17.974;2023-03-23T06:55:16;99131.22;;;6.20;81.35
71476;BME280;59286;59.274;17.974;2023-03-23T06:57:42;99136.91;;;6.22;80.83
71476;BME280;59286;59.274;17.974;2023-03-23T07:00:08;99131.06;;;6.25;80.01
71476;BME280;59286;59.274;17.974;2023-03-23T07:02:36;99136.97;;;6.39;81.22
71476;BME280;59286;59.274;17.974;2023-03-23T07:05:02;99140.06;;;6.58;81.33
71476;BME280;59286;59.274;17.974;2023-03-23T07:07:29;99130.59;;;6.62;79.50
71476;BME280;59286;59.274;17.974;2023-03-23T07:09:54;99140.25;;;6.70;78.50
71476;BME280;59286;59.274;17.974;2023-03-23T07:12:20;99133.03;;;6.67;78.01
71476;BME280;59286;59.274;17.974;2023-03-23T07:14:45;99143.03;;;6.82;78.04
71476;BME280;59286;59.274;17.974;2023-03-23T07:17:11;99145.31;;;6.92;77.34
71476;BME280;59286;59.274;17.974;2023-03-23T07:19:36;99146.13;;;7.01;77.33
71476;BME280;59286;59.274;17.974;2023-03-23T07:22:04;99154.22;;;7.17;77.02
71476;BME280;59286;59.274;17.974;2023-03-23T07:24:30;99155.94;;;7.21;76.45
71476;BME280;59286;59.274;17.974;2023-03-23T07:26:55;99147.78;;;7.31;76.17
71476;BME280;59286;59.274;17.974;2023-03-23T07:29:21;99128.50;;;7.32;74.48
71476;BME280;59286;59.274;17.974;2023-03-23T07:31:46;99155.31;;;7.33;74.99
71476;BME280;59286;59.274;17.974;2023-03-23T07:34:12;99146.56;;;7.54;75.05
71476;BME280;59286;59.274;17.974;2023-03-23T07:36:37;99145.78;;;7.54;73.63
71476;BME280;59286;59.274;17.974;2023-03-23T07:39:04;99157.28;;;7.61;74.40
71476;BME280;59286;59.274;17.974;2023-03-23T07:41:31;99152.97;;;7.65;73.91
71476;BME280;59286;59.274;17.974;2023-03-23T07:43:56;99161.09;;;7.64;73.64
71476;BME280;59286;59.274;17.974;2023-03-23T07:46:21;99159.41;;;7.68;73.83
71476;BME280;59286;59.274;17.974;2023-03-23T07:48:47;99164.91;;;7.66;72.83
71476;BME280;59286;59.274;17.974;2023-03-23T07:51:13;99170.13;;;7.75;72.75
71476;BME280;59286;59.274;17.974;2023-03-23T07:53:38;99171.31;;;7.95;73.24
71476;BME280;59286;59.274;17.974;2023-03-23T07:56:03;99166.69;;;8.00;72.33
71476;BME280;59286;59.274;17.974;2023-03-23T07:58:29;99173.03;;;7.91;72.30
71476;BME280;59286;59.274;17.974;2023-03-23T08:00:54;99162.97;;;8.10;72.71
71476;BME280;59286;59.274;17.974;2023-03-23T08:03:22;99161.28;;;8.14;71.16
71476;BME280;59286;59.274;17.974;2023-03-23T08:05:48;99153.47;;;8.14;70.85
71476;BME280;59286;59.274;17.974;2023-03-23T08:08:13;99160.22;;;8.15;70.25
71476;BME280;59286;59.274;17.974;2023-03-23T08:10:39;99158.63;;;8.31;70.65
71476;BME280;59286;59.274;17.974;2023-03-23T08:13:05;99155.03;;;8.44;69.32
71476;BME280;59286;59.274;17.974;2023-03-23T08:15:31;99151.19;;;8.50;69.37
71476;BME280;59286;59.274;17.974;2023-03-23T08:18:03;99157.94;;;8.51;68.51
71476;BME280;59286;59.274;17.974;2023-03-23T08:20:28;99142.34;;;8.63;69.01
71476;BME280;59286;59.274;17.974;2023-03-23T08:22:55;99145.47;;;8.77;68.67
71476;BME280;59286;59.274;17.974;2023-03-23T08:25:22;99142.56;;;8.78;67.69
71476;BME280;59286;59.274;17.974;2023-03-23T08:27:49;99149.19;;;8.76;66.90
71476;BME280;59286;59.274;17.974;2023-03-23T08:30:17;99151.28;;;8.82;67.07
71476;BME280;59286;59.274;17.974;2023-03-23T08:32:44;99147.16;;;8.82;68.08
71476;BME280;59286;59.274;17.974;2023-03-23T08:35:11;99152.75;;;8.92;66.74
71476;BME280;59286;59.274;17.974;2023-03-23T08:37:37;99150.59;;;8.94;65.87
71476;BME280;59286;59.274;17.974;2023-03-23T08:40:04;99156.72;;;8.98;65.84
71476;BME280;59286;59.274;17.974;2023-03-23T08:42:34;99155.47;;;9.04;65.98
71476;BME280;59286;59.274;17.974;2023-03-23T08:44:59;99158.56;;;9.18;67.17
71476;BME280;59286;59.274;17.974;2023-03-23T08:47:26;99149.25;;;9.29;66.22
71476;BME280;59286;59.274;17.974;2023-03-23T08:49:51;99158.22;;;9.40;64.64
71476;BME280;59286;59.274;17.974;2023-03-23T08:52:19;99158.00;;;9.33;64.75
71476;BME280;59286;59.274;17.974;2023-03-23T08:54:44;99155.28;;;9.42;64.59
71476;BME280;59286;59.274;17.974;2023-03-23T08:57:12;99156.13;;;9.54;64.48
71476;BME280;59286;59.274;17.974;2023-03-23T08:59:39;99154.78;;;9.48;64.47
71476;BME280;59286;59.274;17.974;2023-03-23T09:02:05;99159.38;;;9.51;63.16
71476;BME280;59286;59.274;17.974;2023-03-23T09:04:31;99154.78;;;9.48;63.98
71476;BME280;59286;59.274;17.974;2023-03-23T09:06:57;99157.19;;;9.53;64.05
71476;BME280;59286;59.274;17.974;2023-03-23T09:09:23;99153.19;;;9.68;63.28
71476;BME280;59286;59.274;17.974;2023-03-23T09:11:49;99136.75;;;9.67;63.74
71476;BME280;59286;59.274;17.974;2023-03-23T09:14:15;99145.72;;;9.78;62.61
71476;BME280;59286;59.274;17.974;2023-03-23T09:16:40;99144.19;;;9.77;64.24
71476;BME280;59286;59.274;17.974;2023-03-23T09:19:05;99144.28;;;9.81;62.87
71476;BME280;59286;59.274;17.974;2023-03-23T09:21:33;99139.88;;;9.94;62.65
71476;BME280;59286;59.274;17.974;2023-03-23T09:23:59;99135.94;;;9.88;62.39
71476;BME280;59286;59.274;17.974;2023-03-23T09:26:25;99145.09;;;9.94;61.86
71476;BME280;59286;59.274;17.974;2023-03-23T09:28:51;99141.78;;;9.85;62.50
71476;BME280;59286;59.274;17.974;2023-03-23T09:31:17;99134.63;;;9.94;63.99
71476;BME280;59286;59.274;17.974;2023-03-23T09:33:45;99138.44;;;9.96;65.51
71476;BME280;59286;59.274;17.974;2023-03-23T09:36:11;99129.63;;;10.01;64.88
71476;BME280;59286;59.274;17.974;2023-03-23T09:38:39;99127.13;;;10.04;66.07
71476;BME280;59286;59.274;17.974;2023-03-23T09:49:41;99127.16;;;10.16;65.79
71476;BME280;59286;59.274;17.974;2023-03-23T09:52:15;99129.66;;;10.25;65.46
71476;BME280;59286;59.274;17.974;2023-03-23T09:54:52;99134.91;;;10.25;66.82
71476;BME280;59286;59.274;17.974;2023-03-23T09:57:32;99140.66;;;10.18;65.25
71476;BME280;59286;59.274;17.974;2023-03-23T10:00:37;99133.56;;;10.07;65.86
71476;BME280;59286;59.274;17.974;2023-03-23T10:03:21;99125.03;;;9.98;66.67
71476;BME280;59286;59.274;17.974;2023-03-23T10:05:51;99129.50;;;9.97;66.46
71476;BME280;59286;59.274;17.974;2023-03-23T10:08:24;99117.50;;;9.96;66.06
71476;BME280;59286;59.274;17.974;2023-03-23T10:16:15;99112.75;;;10.10;63.48
71476;BME280;59286;59.274;17.974;2023-03-23T10:19:17;99119.63;;;10.15;64.47
71476;BME280;59286;59.274;17.974;2023-03-23T10:21:50;99111.03;;;10.14;63.40
71476;BME280;59286;59.274;17.974;2023-03-23T10:24:21;99126.50;;;10.19;63.54
71476;BME280;59286;59.274;17.974;2023-03-23T10:29:46;99111.31;;;10.37;63.40
71476;BME280;59286;59.274;17.974;2023-03-23T10:32:16;99117.00;;;10.51;63.05
71476;BME280;59286;59.274;17.974;2023-03-23T10:34:52;99116.34;;;10.54;64.63
71476;BME280;59286;59.274;17.974;2023-03-23T10:37:23;99114.03;;;10.52;63.86
71476;BME280;59286;59.274;17.974;2023-03-23T10:39:59;99122.25;;;10.51;64.09
71476;BME280;59286;59.274;17.974;2023-03-23T10:42:27;99115.69;;;10.57;64.62
71476;BME280;59286;59.274;17.974;2023-03-23T10:44:54;99115.25;;;10.55;64.75
71476;BME280;59286;59.274;17.974;2023-03-23T10:47:21;99112.16;;;10.65;64.17
71476;BME280;59286;59.274;17.974;2023-03-23T10:49:59;99106.72;;;10.58;64.53
71476;BME280;59286;59.274;17.974;2023-03-23T10:52:35;99107.94;;;10.60;64.60
71476;BME280;59286;59.274;17.974;2023-03-23T10:55:09;99107.59;;;10.62;63.04
71476;BME280;59286;59.274;17.974;2023-03-23T10:57:36;99102.56;;;10.69;63.14
71476;BME280;59286;59.274;17.974;2023-03-23T11:02:43;99099.06;;;10.65;63.19
71476;BME280;59286;59.274;17.974;2023-03-23T11:05:55;99110.66;;;10.64;63.35
71476;BME280;59286;59.274;17.974;2023-03-23T11:07:56;99105.59;;;10.71;64.33
71476;BME280;59286;59.274;17.974;2023-03-23T11:10:26;99105.16;;;10.81;62.78
71476;BME280;59286;59.274;17.974;2023-03-23T11:12:52;99099.59;;;10.83;62.35
71476;BME280;59286;59.274;17.974;2023-03-23T11:15:32;99101.34;;;10.79;62.72
71476;BME280;59286;59.274;17.974;2023-03-23T11:18:02;99094.09;;;10.88;61.64
71476;BME280;59286;59.274;17.974;2023-03-23T11:20:35;99097.50;;;10.88;60.65
71476;BME280;59286;59.274;17.974;2023-03-23T11:23:07;99094.81;;;11.00;61.15
71476;BME280;59286;59.274;17.974;2023-03-23T11:25:33;99107.53;;;10.98;61.43
71476;BME280;59286;59.274;17.974;2023-03-23T11:28:01;99097.88;;;11.02;62.21
71476;BME280;59286;59.274;17.974;2023-03-23T11:30:29;99098.84;;;11.10;62.27
71476;BME280;59286;59.274;17.974;2023-03-23T11:32:59;99098.19;;;11.13;62.05
71476;BME280;59286;59.274;17.974;2023-03-23T11:35:27;99091.97;;;11.05;61.20
71476;BME280;59286;59.274;17.974;2023-03-23T11:37:55;99095.03;;;11.07;61.47
71476;BME280;59286;59.274;17.974;2023-03-23T11:40:24;99093.28;;;11.11;61.22
71476;BME280;59286;59.274;17.974;2023-03-23T11:43:00;99102.91;;;11.07;60.40
71476;BME280;59286;59.274;17.974;2023-03-23T11:45:41;99097.44;;;11.00;60.81
71476;BME280;59286;59.274;17.974;2023-03-23T11:58:49;99089.03;;;11.07;59.42
71476;BME280;59286;59.274;17.974;2023-03-23T12:01:24;99086.94;;;11.00;59.59
71476;BME280;59286;59.274;17.974;2023-03-23T12:03:58;99090.97;;;11.10;58.97
71476;BME280;59286;59.274;17.974;2023-03-23T12:06:34;99082.34;;;11.09;58.66
71476;BME280;59286;59.274;17.974;2023-03-23T12:09:28;99080.38;;;11.06;59.98
71476;BME280;59286;59.274;17.974;2023-03-23T12:14:54;99078.69;;;11.26;59.86
71476;BME280;59286;59.274;17.974;2023-03-23T12:20:28;99072.09;;;11.32;58.65
71476;BME280;59286;59.274;17.974;2023-03-23T12:23:33;99057.88;;;11.33;57.37
71476;BME280;59286;59.274;17.974;2023-03-23T12:26:06;99061.88;;;11.42;56.43
71476;BME280;59286;59.274;17.974;2023-03-23T12:28:48;99059.75;;;11.48;57.33
71476;BME280;59286;59.274;17.974;2023-03-23T12:31:31;99050.59;;;11.42;57.55
71476;BME280;59286;59.274;17.974;2023-03-23T12:34:11;99050.25;;;11.43;56.55
71476;BME280;59286;59.274;17.974;2023-03-23T12:39:49;99045.81;;;11.59;55.94
71476;BME280;59286;59.274;17.974;2023-03-23T12:42:47;99043.72;;;11.65;55.23
71476;BME280;59286;59.274;17.974;2023-03-23T12:45:37;99042.78;;;11.73;56.03
71476;BME280;59286;59.274;17.974;2023-03-23T12:48:10;99041.75;;;11.78;55.69
71476;BME280;59286;59.274;17.974;2023-03-23T12:53:32;99043.97;;;11.91;55.85
71476;BME280;59286;59.274;17.974;2023-03-23T12:56:16;99032.34;;;11.92;55.35
71476;BME280;59286;59.274;17.974;2023-03-23T12:58:45;99028.94;;;11.92;54.90
71476;BME280;59286;59.274;17.974;2023-03-23T13:01:26;99011.41;;;11.96;55.62
71476;BME280;59286;59.274;17.974;2023-03-23T13:04:07;99030.44;;;12.24;55.55
71476;BME280;59286;59.274;17.974;2023-03-23T13:06:42;99033.38;;;12.38;53.72
71476;BME280;59286;59.274;17.974;2023-03-23T13:09:32;99027.34;;;12.37;52.94
71476;BME280;59286;59.274;17.974;2023-03-23T13:12:01;99018.84;;;12.25;52.50
71476;BME280;59286;59.274;17.974;2023-03-23T13:17:32;99028.09;;;12.03;51.93
71476;BME280;59286;59.274;17.974;2023-03-23T13:22:56;99023.38;;;11.93;52.52
71476;BME280;59286;59.274;17.974;2023-03-23T13:25:48;99030.28;;;12.01;53.61
71476;BME280;59286;59.274;17.974;2023-03-23T13:28:17;99022.75;;;12.00;55.45
71476;BME280;59286;59.274;17.974;2023-03-23T13:33:23;99014.31;;;11.91;56.08
71476;BME280;59286;59.274;17.974;2023-03-23T13:35:49;99012.81;;;11.90;55.77
71476;BME280;59286;59.274;17.974;2023-03-23T13:38:23;99010.69;;;11.80;56.95
71476;BME280;59286;59.274;17.974;2023-03-23T13:40:50;99017.94;;;11.86;55.27
71476;BME280;59286;59.274;17.974;2023-03-23T13:43:34;99010.19;;;11.90;56.29
71476;BME280;59286;59.274;17.974;2023-03-23T13:48:50;99009.47;;;12.08;54.43
71476;BME280;59286;59.274;17.974;2023-03-23T14:01:51;98986.13;;;11.88;53.34
71476;BME280;59286;59.274;17.974;2023-03-23T14:04:18;98998.03;;;12.01;54.08
71476;BME280;59286;59.274;17.974;2023-03-23T14:06:48;98993.88;;;12.00;53.83
71476;BME280;59286;59.274;17.974;2023-03-23T14:09:18;98985.72;;;12.05;54.60
71476;BME280;59286;59.274;17.974;2023-03-23T14:11:58;98990.75;;;12.10;55.80
71476;BME280;59286;59.274;17.974;2023-03-23T14:14:38;98979.47;;;12.09;54.81
71476;BME280;59286;59.274;17.974;2023-03-23T14:17:14;98982.84;;;12.10;55.91
71476;BME280;59286;59.274;17.974;2023-03-23T14:19:42;98988.53;;;12.12;56.75
71476;BME280;59286;59.274;17.974;2023-03-23T14:24:42;98977.22;;;11.92;56.55
71476;BME280;59286;59.274;17.974;2023-03-23T14:27:12;98978.91;;;11.85;55.59
71476;BME280;59286;59.274;17.974;2023-03-23T14:29:38;98976.13;;;11.78;57.82